Time;durP1;ratioP1;P1;durP2;ratioP2;P2;SDS_P1;SDS_P2;PMS_P1;PMS_P2;Temp;Humidity;BMP_temperature;BMP_pressure;BME280_temperature;BME280_humidity;BME280_pressure;Samples;Min_cycle;Max_cycle;Signal;HPM_P1;HPM_P2
2022/07/06 00:00:10;;;;;;;2.42;1.52;;;;;;;;;;5061866;28;20196;-69
2022/07/06 00:02:38;;;;;;;1.55;1.38;;;;;;;;;;5062176;28;20504;-69
2022/07/06 00:05:04;;;;;;;1.67;1.35;;;;;;;;;;5062019;28;20217;-69
2022/07/06 00:07:31;;;;;;;2.13;1.50;;;;;;;;;;5061730;28;20223;-69
2022/07/06 00:09:58;;;;;;;2.88;1.40;;;;;;;;;;5063016;28;20390;-69
2022/07/06 00:12:24;;;;;;;3.35;1.33;;;;;;;;;;5065767;28;20269;-69
2022/07/06 00:14:50;;;;;;;1.50;1.40;;;;;;;;;;5065978;28;20204;-69
2022/07/06 00:17:16;;;;;;;5.38;1.50;;;;;;;;;;5065504;28;20224;-69
2022/07/06 00:19:44;;;;;;;4.18;1.90;;;;;;;;;;5065669;28;20376;-69
2022/07/06 00:22:10;;;;;;;2.38;1.88;;;;;;;;;;5066012;28;20220;-69
2022/07/06 00:24:37;;;;;;;4.68;1.90;;;;;;;;;;5065631;28;20200;-69
2022/07/06 00:27:03;;;;;;;1.88;1.77;;;;;;;;;;5065678;28;20380;-69
2022/07/06 00:29:30;;;;;;;3.42;1.50;;;;;;;;;;5065755;28;20197;-69
2022/07/06 00:31:56;;;;;;;1.52;1.42;;;;;;;;;;5065682;28;20201;-69
2022/07/06 00:34:22;;;;;;;1.40;1.35;;;;;;;;;;5065573;28;20201;-69
2022/07/06 00:36:50;;;;;;;3.95;2.00;;;;;;;;;;5065239;28;20196;-69
2022/07/06 00:39:18;;;;;;;1.50;1.50;;;;;;;;;;5065418;28;20384;-69
2022/07/06 00:41:45;;;;;;;5.07;1.70;;;;;;;;;;5065241;28;20491;-69
2022/07/06 00:44:11;;;;;;;1.70;1.70;;;;;;;;;;5065224;28;20203;-69
2022/07/06 00:46:37;;;;;;;1.38;1.30;;;;;;;;;;5065171;28;20197;-69
2022/07/06 00:49:03;;;;;;;2.38;1.60;;;;;;;;;;5065247;28;20228;-69
2022/07/06 00:51:31;;;;;;;2.40;1.67;;;;;;;;;;5065209;28;20197;-69
2022/07/06 00:54:00;;;;;;;2.00;1.90;;;;;;;;;;5065168;28;20211;-69
2022/07/06 00:56:27;;;;;;;2.08;1.92;;;;;;;;;;5064868;28;20201;-69
2022/07/06 00:58:53;;;;;;;2.55;1.63;;;;;;;;;;5065153;28;20469;-69
2022/07/06 01:01:20;;;;;;;2.50;1.60;;;;;;;;;;5065135;28;20197;-69
2022/07/06 01:03:46;;;;;;;2.90;1.70;;;;;;;;;;5064997;28;20205;-69
2022/07/06 01:06:12;;;;;;;1.90;1.90;;;;;;;;;;5064465;28;20217;-69
2022/07/06 01:08:39;;;;;;;5.35;1.75;;;;;;;;;;5064696;28;20678;-69
2022/07/06 01:11:06;;;;;;;4.18;1.88;;;;;;;;;;5064745;28;20204;-69
2022/07/06 01:13:33;;;;;;;2.03;1.80;;;;;;;;;;5064838;28;20204;-69
2022/07/06 01:15:59;;;;;;;3.67;1.73;;;;;;;;;;5064618;28;20372;-69
2022/07/06 01:18:26;;;;;;;1.48;1.48;;;;;;;;;;5063835;28;20197;-69
2022/07/06 01:21:05;;;;;;;1.80;1.70;;;;;;;;;;5064361;28;20423;-69
2022/07/06 01:23:31;;;;;;;2.67;1.83;;;;;;;;;;5064343;28;20255;-69
2022/07/06 01:25:57;;;;;;;2.78;1.83;;;;;;;;;;5063584;28;20203;-69
2022/07/06 01:28:23;;;;;;;2.22;1.65;;;;;;;;;;5064464;28;20390;-69
2022/07/06 01:30:50;;;;;;;2.40;1.80;;;;;;;;;;5064524;28;20197;-69
2022/07/06 01:33:16;;;;;;;1.75;1.65;;;;;;;;;;5064777;28;20201;-69
2022/07/06 01:35:42;;;;;;;2.90;2.15;;;;;;;;;;5064395;28;20200;-69
2022/07/06 01:38:10;;;;;;;2.17;1.92;;;;;;;;;;5064095;28;20198;-69
2022/07/06 01:40:36;;;;;;;4.05;1.90;;;;;;;;;;5064139;28;20198;-69
2022/07/06 01:43:02;;;;;;;2.72;1.73;;;;;;;;;;5064286;28;20196;-69
2022/07/06 01:45:32;;;;;;;2.55;1.80;;;;;;;;;;5064300;28;20455;-69
2022/07/06 01:47:58;;;;;;;1.88;1.77;;;;;;;;;;5063945;28;20535;-69
2022/07/06 01:50:24;;;;;;;2.95;1.65;;;;;;;;;;5064090;28;20421;-69
2022/07/06 01:52:51;;;;;;;2.08;1.98;;;;;;;;;;5064068;28;20201;-69
2022/07/06 01:55:18;;;;;;;3.50;1.88;;;;;;;;;;5063886;28;20201;-69
2022/07/06 01:57:44;;;;;;;2.03;1.83;;;;;;;;;;5064028;28;20197;-69
2022/07/06 02:00:11;;;;;;;2.10;1.90;;;;;;;;;;5064054;28;20550;-69
2022/07/06 02:02:37;;;;;;;3.25;2.10;;;;;;;;;;5063950;28;20197;-69
2022/07/06 02:05:04;;;;;;;2.10;2.00;;;;;;;;;;5063745;28;20217;-69
2022/07/06 02:07:30;;;;;;;2.00;1.90;;;;;;;;;;5063301;28;20201;-69
2022/07/06 02:09:56;;;;;;;2.08;1.90;;;;;;;;;;5063562;28;20232;-69
2022/07/06 02:12:24;;;;;;;2.85;1.77;;;;;;;;;;5063840;28;20227;-69
2022/07/06 02:14:50;;;;;;;1.90;1.80;;;;;;;;;;5063584;28;20197;-69
2022/07/06 02:17:16;;;;;;;2.13;1.92;;;;;;;;;;5063535;28;20213;-69
2022/07/06 02:19:42;;;;;;;3.15;1.67;;;;;;;;;;5063433;28;20288;-69
2022/07/06 02:22:09;;;;;;;2.08;1.98;;;;;;;;;;5063431;28;20209;-69
2022/07/06 02:24:35;;;;;;;3.50;2.00;;;;;;;;;;5063669;28;20205;-69
2022/07/06 02:27:01;;;;;;;2.10;1.90;;;;;;;;;;5063319;28;20200;-69
2022/07/06 02:29:29;;;;;;;4.63;2.20;;;;;;;;;;5063315;28;20246;-69
2022/07/06 02:31:55;;;;;;;2.25;1.83;;;;;;;;;;5063339;28;20407;-69
2022/07/06 02:34:22;;;;;;;2.42;2.20;;;;;;;;;;5063081;28;20197;-69
2022/07/06 02:36:48;;;;;;;1.83;1.75;;;;;;;;;;5062830;28;20385;-69
2022/07/06 02:39:14;;;;;;;1.88;1.77;;;;;;;;;;5063288;28;20197;-69
2022/07/06 02:41:41;;;;;;;1.88;1.77;;;;;;;;;;5063121;28;20201;-69
2022/07/06 02:44:07;;;;;;;4.47;2.25;;;;;;;;;;5063117;28;20197;-69
2022/07/06 02:46:35;;;;;;;2.08;2.00;;;;;;;;;;5062776;28;20212;-69
2022/07/06 02:49:01;;;;;;;2.28;1.80;;;;;;;;;;5062871;28;20213;-69
2022/07/06 02:51:27;;;;;;;1.98;1.88;;;;;;;;;;5062850;28;20203;-69
2022/07/06 02:53:54;;;;;;;2.10;2.00;;;;;;;;;;5062778;28;20201;-69
2022/07/06 02:56:20;;;;;;;2.10;1.98;;;;;;;;;;5062815;28;20395;-69
2022/07/06 02:58:46;;;;;;;5.13;2.05;;;;;;;;;;5062794;28;20193;-69
2022/07/06 03:01:12;;;;;;;2.35;1.90;;;;;;;;;;5062717;28;20243;-69
2022/07/06 03:03:40;;;;;;;2.30;2.10;;;;;;;;;;5062642;28;20219;-69
2022/07/06 03:06:06;;;;;;;2.13;1.80;;;;;;;;;;5062277;28;20262;-69
2022/07/06 03:08:34;;;;;;;4.03;1.92;;;;;;;;;;5062598;28;20224;-69
2022/07/06 03:11:00;;;;;;;2.28;2.00;;;;;;;;;;5062558;28;20197;-69
2022/07/06 03:13:27;;;;;;;2.25;2.15;;;;;;;;;;5062596;28;20370;-69
2022/07/06 03:15:53;;;;;;;2.22;2.13;;;;;;;;;;5062441;28;20197;-69
2022/07/06 03:18:19;;;;;;;2.58;1.90;;;;;;;;;;5062205;28;20197;-69
2022/07/06 03:20:47;;;;;;;1.83;1.75;;;;;;;;;;5062194;28;20517;-69
2022/07/06 03:23:13;;;;;;;2.28;2.10;;;;;;;;;;5062490;28;20204;-69
2022/07/06 03:25:40;;;;;;;5.20;2.00;;;;;;;;;;5062377;28;20201;-68
2022/07/06 03:28:06;;;;;;;2.70;2.50;;;;;;;;;;5061854;28;20201;-70
2022/07/06 03:30:32;;;;;;;3.10;2.35;;;;;;;;;;5062259;28;20497;-70
2022/07/06 03:32:58;;;;;;;2.30;2.20;;;;;;;;;;5062232;28;20500;-70
2022/07/06 03:35:25;;;;;;;2.08;1.98;;;;;;;;;;5062426;28;20208;-70
2022/07/06 03:37:52;;;;;;;3.20;2.40;;;;;;;;;;5062150;28;20201;-70
2022/07/06 03:40:19;;;;;;;2.22;2.05;;;;;;;;;;5062363;28;20197;-70
2022/07/06 03:42:45;;;;;;;3.72;2.38;;;;;;;;;;5062456;28;20203;-70
2022/07/06 03:45:11;;;;;;;2.33;2.10;;;;;;;;;;5061703;28;20425;-70
2022/07/06 03:47:38;;;;;;;3.20;1.98;;;;;;;;;;5061742;28;20204;-70
2022/07/06 03:50:04;;;;;;;2.17;1.92;;;;;;;;;;5062176;28;20531;-70
2022/07/06 03:52:30;;;;;;;2.42;2.30;;;;;;;;;;5062049;28;20211;-70
2022/07/06 03:54:58;;;;;;;2.30;2.20;;;;;;;;;;5062424;28;20228;-70
2022/07/06 03:57:25;;;;;;;3.67;2.17;;;;;;;;;;5062025;28;20200;-70
2022/07/06 03:59:51;;;;;;;2.20;2.10;;;;;;;;;;5061964;28;20268;-70
2022/07/06 04:02:18;;;;;;;3.80;2.10;;;;;;;;;;5061881;28;20243;-70
2022/07/06 04:04:44;;;;;;;3.90;2.20;;;;;;;;;;5061992;28;20393;-70
2022/07/06 04:07:10;;;;;;;2.30;2.20;;;;;;;;;;5061942;28;20203;-70
2022/07/06 04:09:37;;;;;;;2.10;2.00;;;;;;;;;;5061802;28;20266;-70
2022/07/06 04:12:05;;;;;;;2.65;1.83;;;;;;;;;;5061915;28;20204;-70
2022/07/06 04:14:31;;;;;;;2.30;2.22;;;;;;;;;;5061856;28;20236;-70
2022/07/06 04:16:57;;;;;;;4.53;2.30;;;;;;;;;;5061726;28;20197;-70
2022/07/06 04:19:23;;;;;;;2.95;2.65;;;;;;;;;;5061808;28;20207;-70
2022/07/06 04:21:50;;;;;;;1.92;1.83;;;;;;;;;;5061818;28;20203;-70
2022/07/06 04:24:16;;;;;;;2.13;2.03;;;;;;;;;;5061678;28;20247;-70
2022/07/06 04:26:42;;;;;;;2.10;2.00;;;;;;;;;;5061483;28;20505;-70
2022/07/06 04:29:10;;;;;;;2.97;1.92;;;;;;;;;;5062062;28;20439;-68
2022/07/06 04:31:36;;;;;;;2.60;2.40;;;;;;;;;;5061901;28;20213;-70
2022/07/06 04:34:03;;;;;;;2.78;2.58;;;;;;;;;;5061899;28;20208;-70
2022/07/06 04:36:29;;;;;;;3.83;3.55;;;;;;;;;;5061382;28;20197;-70
2022/07/06 04:38:55;;;;;;;3.90;2.75;;;;;;;;;;5061635;28;20193;-70
2022/07/06 04:41:21;;;;;;;2.78;2.30;;;;;;;;;;5061512;28;20201;-70
2022/07/06 04:43:48;;;;;;;3.70;2.72;;;;;;;;;;5061469;28;20509;-70
2022/07/06 04:46:15;;;;;;;5.35;2.53;;;;;;;;;;5061592;28;20251;-70
2022/07/06 04:48:42;;;;;;;2.75;2.55;;;;;;;;;;5061606;28;20209;-70
2022/07/06 04:51:08;;;;;;;5.65;2.80;;;;;;;;;;5061629;28;20205;-70
2022/07/06 04:53:35;;;;;;;2.50;2.30;;;;;;;;;;5061499;28;20209;-70
2022/07/06 04:56:01;;;;;;;4.65;2.53;;;;;;;;;;5061449;28;20227;-70
2022/07/06 04:58:27;;;;;;;2.88;2.45;;;;;;;;;;5064497;28;20243;-70
2022/07/06 05:00:53;;;;;;;3.42;2.42;;;;;;;;;;5065204;28;20201;-70
2022/07/06 05:03:21;;;;;;;2.70;2.60;;;;;;;;;;5065111;28;20307;-70
2022/07/06 05:05:47;;;;;;;4.07;2.70;;;;;;;;;;5065001;28;20220;-70
2022/07/06 05:08:13;;;;;;;3.90;2.42;;;;;;;;;;5064845;28;20200;-70
2022/07/06 05:10:40;;;;;;;2.60;2.40;;;;;;;;;;5064798;28;20217;-70
2022/07/06 05:13:06;;;;;;;4.53;2.60;;;;;;;;;;5064521;28;20268;-70
2022/07/06 05:15:32;;;;;;;5.28;2.35;;;;;;;;;;5061792;28;20203;-62
2022/07/06 05:17:59;;;;;;;3.22;2.78;;;;;;;;;;5051626;28;20455;-62
2022/07/06 05:20:26;;;;;;;3.90;2.90;;;;;;;;;;5053396;28;20217;-62
2022/07/06 05:22:52;;;;;;;4.13;2.97;;;;;;;;;;5048816;28;20213;-62
2022/07/06 05:25:19;;;;;;;3.55;2.70;;;;;;;;;;5058427;28;20220;-62
2022/07/06 05:27:45;;;;;;;6.57;2.83;;;;;;;;;;5039730;28;20441;-62
2022/07/06 05:30:12;;;;;;;3.80;2.28;;;;;;;;;;5037498;28;20233;-62
2022/07/06 05:32:38;;;;;;;3.42;2.42;;;;;;;;;;5044706;28;20213;-62
2022/07/06 05:35:05;;;;;;;5.25;2.50;;;;;;;;;;5040511;28;20403;-62
2022/07/06 05:37:32;;;;;;;2.50;2.40;;;;;;;;;;5036023;28;20220;-64
2022/07/06 05:39:58;;;;;;;5.35;2.38;;;;;;;;;;5036545;28;20297;-64
2022/07/06 05:42:25;;;;;;;2.85;2.47;;;;;;;;;;5036234;28;20221;-63
2022/07/06 05:44:51;;;;;;;3.65;2.53;;;;;;;;;;5045015;28;20732;-63
2022/07/06 05:50:14;;;;;;;2.72;2.45;;;;;;;;;;5056602;28;20696;-63
2022/07/06 05:52:41;;;;;;;8.02;2.40;;;;;;;;;;5056339;28;20247;-63
2022/07/06 05:55:08;;;;;;;6.38;2.42;;;;;;;;;;5040496;28;20280;-63
2022/07/06 05:57:35;;;;;;;4.03;2.47;;;;;;;;;;5035707;28;20537;-63
2022/07/06 06:00:01;;;;;;;2.63;2.47;;;;;;;;;;5036600;28;20450;-63
2022/07/06 06:02:27;;;;;;;6.60;2.40;;;;;;;;;;5036429;28;20210;-63
2022/07/06 06:04:54;;;;;;;3.30;1.83;;;;;;;;;;5036013;28;20257;-63
2022/07/06 06:07:20;;;;;;;4.47;2.20;;;;;;;;;;5043971;28;20209;-63
2022/07/06 06:09:48;;;;;;;7.95;2.55;;;;;;;;;;5046516;28;20226;-63
2022/07/06 06:12:14;;;;;;;5.70;2.20;;;;;;;;;;5049428;28;20296;-63
2022/07/06 06:14:40;;;;;;;2.90;2.40;;;;;;;;;;5039304;28;20280;-63
2022/07/06 06:17:09;;;;;;;2.63;2.42;;;;;;;;;;5054814;28;20213;-63
2022/07/06 06:19:36;;;;;;;3.42;2.25;;;;;;;;;;5054282;28;20251;-63
2022/07/06 06:22:02;;;;;;;7.43;2.10;;;;;;;;;;5054456;28;20212;-63
2022/07/06 06:24:29;;;;;;;2.05;2.00;;;;;;;;;;5042221;28;20256;-63
2022/07/06 06:26:57;;;;;;;3.15;2.30;;;;;;;;;;5054502;28;20217;-63
2022/07/06 06:29:24;;;;;;;3.88;2.00;;;;;;;;;;5055056;28;20282;-62
2022/07/06 06:31:50;;;;;;;4.68;2.00;;;;;;;;;;5044578;28;20225;-61
2022/07/06 06:34:16;;;;;;;3.58;1.83;;;;;;;;;;5035456;28;20267;-61
2022/07/06 06:36:42;;;;;;;4.20;2.20;;;;;;;;;;5045948;28;20217;-61
2022/07/06 06:39:09;;;;;;;7.70;2.30;;;;;;;;;;5047024;28;20221;-60
2022/07/06 06:41:35;;;;;;;5.25;2.20;;;;;;;;;;5038126;28;20244;-61
2022/07/06 06:44:03;;;;;;;4.70;2.15;;;;;;;;;;5053465;28;20215;-61
2022/07/06 06:46:29;;;;;;;6.05;2.10;;;;;;;;;;5053931;28;20227;-61
2022/07/06 06:48:55;;;;;;;2.92;1.90;;;;;;;;;;5053934;28;20528;-61
2022/07/06 06:51:21;;;;;;;4.30;2.00;;;;;;;;;;5054393;28;20237;-61
2022/07/06 06:53:48;;;;;;;3.10;1.90;;;;;;;;;;5041317;28;20256;-61
2022/07/06 06:56:14;;;;;;;2.45;2.20;;;;;;;;;;5033970;28;20213;-60
2022/07/06 06:58:40;;;;;;;5.78;2.00;;;;;;;;;;5034161;28;20223;-62
2022/07/06 07:01:08;;;;;;;5.68;1.92;;;;;;;;;;5034397;28;20217;-62
2022/07/06 07:03:34;;;;;;;2.80;2.00;;;;;;;;;;5048932;28;20527;-62
2022/07/06 07:06:00;;;;;;;5.72;1.73;;;;;;;;;;5053854;28;20275;-62
2022/07/06 07:08:27;;;;;;;5.28;2.10;;;;;;;;;;5053471;28;20217;-62
2022/07/06 07:10:53;;;;;;;4.10;2.10;;;;;;;;;;5052100;28;20583;-61
2022/07/06 07:13:20;;;;;;;6.63;2.33;;;;;;;;;;5039363;28;20282;-62
2022/07/06 07:15:46;;;;;;;4.22;2.70;;;;;;;;;;5054548;28;20250;-62
2022/07/06 07:18:13;;;;;;;8.95;2.78;;;;;;;;;;5053998;28;20220;-63
2022/07/06 07:20:40;;;;;;;7.00;2.95;;;;;;;;;;5053284;28;20315;-62
2022/07/06 07:23:06;;;;;;;2.95;2.58;;;;;;;;;;5040998;28;20209;-61
2022/07/06 07:25:32;;;;;;;5.30;3.15;;;;;;;;;;5034163;28;20220;-61
2022/07/06 07:27:58;;;;;;;2.42;2.22;;;;;;;;;;5048547;28;20213;-60
2022/07/06 07:30:25;;;;;;;3.55;2.00;;;;;;;;;;5053375;28;20225;-62
2022/07/06 07:32:51;;;;;;;7.43;3.78;;;;;;;;;;5039498;28;20231;-62
2022/07/06 07:35:19;;;;;;;3.85;2.58;;;;;;;;;;5043239;28;20217;-62
2022/07/06 07:37:45;;;;;;;6.38;2.40;;;;;;;;;;5053534;28;20332;-62
2022/07/06 07:40:11;;;;;;;27.30;4.90;;;;;;;;;;5054169;28;20259;-61
2022/07/06 07:42:40;;;;;;;20.42;4.20;;;;;;;;;;5054542;28;20224;-62
2022/07/06 07:45:06;;;;;;;2.72;2.45;;;;;;;;;;5043434;28;20543;-61
2022/07/06 07:47:33;;;;;;;4.47;2.80;;;;;;;;;;5045894;28;20392;-62
2022/07/06 07:49:59;;;;;;;7.93;2.38;;;;;;;;;;5053225;28;20460;-61
2022/07/06 07:52:27;;;;;;;4.90;2.80;;;;;;;;;;5049052;28;20213;-62
2022/07/06 07:54:53;;;;;;;3.28;2.28;;;;;;;;;;5053645;28;20217;-61
2022/07/06 07:57:19;;;;;;;6.38;2.67;;;;;;;;;;5044091;28;20229;-61
2022/07/06 07:59:45;;;;;;;6.68;2.30;;;;;;;;;;5045833;28;20213;-62
2022/07/06 08:02:12;;;;;;;6.00;5.00;;;;;;;;;;5046409;28;20213;-62
2022/07/06 08:04:38;;;;;;;2.90;2.05;;;;;;;;;;5033595;28;20213;-61
2022/07/06 08:07:04;;;;;;;3.47;2.00;;;;;;;;;;5050393;28;20213;-61
2022/07/06 08:09:32;;;;;;;6.13;2.42;;;;;;;;;;5038684;28;20209;-61
2022/07/06 08:11:58;;;;;;;3.53;2.17;;;;;;;;;;5036412;28;20205;-62
2022/07/06 08:14:25;;;;;;;5.32;2.20;;;;;;;;;;5033490;28;20213;-60
2022/07/06 08:16:51;;;;;;;3.30;2.17;;;;;;;;;;5033238;28;20654;-61
2022/07/06 08:19:17;;;;;;;4.38;2.15;;;;;;;;;;5046415;28;20221;-61
2022/07/06 08:21:44;;;;;;;4.90;2.17;;;;;;;;;;5049201;28;20216;-61
2022/07/06 08:24:10;;;;;;;3.30;2.35;;;;;;;;;;5033342;28;20505;-61
2022/07/06 08:26:38;;;;;;;2.33;2.22;;;;;;;;;;5052654;28;20220;-61
2022/07/06 08:29:04;;;;;;;4.88;2.03;;;;;;;;;;5053134;28;20217;-61
2022/07/06 08:31:31;;;;;;;5.95;2.25;;;;;;;;;;5043798;28;20241;-61
2022/07/06 08:33:57;;;;;;;3.05;2.40;;;;;;;;;;5039348;28;20468;-62
2022/07/06 08:36:24;;;;;;;6.35;3.35;;;;;;;;;;5056252;28;20213;-61
2022/07/06 08:38:50;;;;;;;66.10;8.25;;;;;;;;;;5051540;28;20214;-61
2022/07/06 08:41:17;;;;;;;6.80;2.70;;;;;;;;;;5045849;28;20536;-61
2022/07/06 08:43:44;;;;;;;8.35;1.98;;;;;;;;;;5048330;28;20220;-60
2022/07/06 08:46:13;;;;;;;5.15;4.00;;;;;;;;;;5056492;28;20209;-61
2022/07/06 08:48:41;;;;;;;4.28;2.20;;;;;;;;;;5057355;28;20235;-61
2022/07/06 08:51:07;;;;;;;2.80;2.60;;;;;;;;;;5056943;28;20239;-61
2022/07/06 08:53:34;;;;;;;2.20;2.00;;;;;;;;;;5056609;28;20251;-61
2022/07/06 08:56:01;;;;;;;5.68;2.85;;;;;;;;;;5055843;28;20217;-60
2022/07/06 08:58:28;;;;;;;5.78;1.73;;;;;;;;;;5042884;28;20536;-60
2022/07/06 09:00:56;;;;;;;7.47;2.40;;;;;;;;;;5051417;28;20209;-61
2022/07/06 09:03:23;;;;;;;6.78;2.70;;;;;;;;;;5056604;28;20259;-61
2022/07/06 09:05:51;;;;;;;2.45;2.28;;;;;;;;;;5055898;28;20744;-61
2022/07/06 09:08:18;;;;;;;2.58;1.73;;;;;;;;;;5043433;28;20213;-61
2022/07/06 09:10:45;;;;;;;6.72;2.00;;;;;;;;;;5055726;28;20243;-61
2022/07/06 09:13:11;;;;;;;4.00;2.22;;;;;;;;;;5052933;28;20217;-61
2022/07/06 09:15:38;;;;;;;5.25;2.53;;;;;;;;;;5056894;28;20212;-62
2022/07/06 09:18:06;;;;;;;5.18;2.40;;;;;;;;;;5055628;28;20217;-61
2022/07/06 09:20:33;;;;;;;5.20;2.67;;;;;;;;;;5055818;28;20446;-61
2022/07/06 09:23:00;;;;;;;3.53;2.35;;;;;;;;;;5045111;28;20213;-62
2022/07/06 09:25:27;;;;;;;2.90;2.17;;;;;;;;;;5035888;28;20213;-61
2022/07/06 09:27:55;;;;;;;3.75;2.42;;;;;;;;;;5035539;28;20260;-61
2022/07/06 09:30:21;;;;;;;5.60;2.72;;;;;;;;;;5035560;28;20536;-62
2022/07/06 09:32:49;;;;;;;3.28;2.33;;;;;;;;;;5049450;28;20388;-62
2022/07/06 09:35:22;;;;;;;2.67;2.47;;;;;;;;;;5056525;28;20578;-62
2022/07/06 09:37:48;;;;;;;4.25;2.45;;;;;;;;;;5055439;28;20217;-61
2022/07/06 09:40:18;;;;;;;3.40;2.05;;;;;;;;;;5055831;28;20208;-61
2022/07/06 09:42:45;;;;;;;7.38;1.95;;;;;;;;;;5051336;28;20217;-62
2022/07/06 09:45:11;;;;;;;4.28;2.20;;;;;;;;;;5035823;28;20213;-62
2022/07/06 09:47:39;;;;;;;4.88;2.45;;;;;;;;;;5051824;28;20216;-61
2022/07/06 09:50:06;;;;;;;3.05;2.40;;;;;;;;;;5054942;28;20326;-61
2022/07/06 09:52:35;;;;;;;7.25;2.20;;;;;;;;;;5049379;28;20418;-61
2022/07/06 09:55:06;;;;;;;2.55;2.17;;;;;;;;;;5051252;28;20201;-63
2022/07/06 09:57:32;;;;;;;2.00;1.90;;;;;;;;;;5051385;28;20198;-61
2022/07/06 09:59:59;;;;;;;2.20;2.00;;;;;;;;;;5054603;28;20209;-62
2022/07/06 10:02:26;;;;;;;5.63;2.53;;;;;;;;;;5055872;28;20231;-62
2022/07/06 10:04:54;;;;;;;3.85;2.22;;;;;;;;;;5049711;28;20236;-62
2022/07/06 10:07:22;;;;;;;3.25;2.40;;;;;;;;;;5045143;28;20240;-62
2022/07/06 10:09:49;;;;;;;1.85;1.60;;;;;;;;;;5051063;28;20280;-59
2022/07/06 10:12:17;;;;;;;2.05;1.95;;;;;;;;;;5039061;28;20468;-59
2022/07/06 10:14:43;;;;;;;16.90;3.70;;;;;;;;;;5056070;28;20216;-62
2022/07/06 10:17:09;;;;;;;7.90;2.08;;;;;;;;;;5035229;28;20213;-63
2022/07/06 10:19:37;;;;;;;8.07;2.10;;;;;;;;;;5035978;28;20224;-62
2022/07/06 10:22:04;;;;;;;7.90;1.92;;;;;;;;;;5035496;28;20209;-61
2022/07/06 10:24:33;;;;;;;2.08;1.90;;;;;;;;;;5035644;28;20552;-62
2022/07/06 10:27:01;;;;;;;3.05;2.13;;;;;;;;;;5034575;28;20212;-62
2022/07/06 10:29:29;;;;;;;3.35;2.28;;;;;;;;;;5054429;28;21044;-62
2022/07/06 10:31:55;;;;;;;3.90;2.17;;;;;;;;;;5040659;28;20225;-62
2022/07/06 10:34:22;;;;;;;4.47;2.10;;;;;;;;;;5035274;28;20236;-61
2022/07/06 10:36:50;;;;;;;8.85;2.95;;;;;;;;;;5039787;28;20528;-62
2022/07/06 10:42:02;;;;;;;4.95;1.98;;;;;;;;;;5055146;28;20211;-61
2022/07/06 10:44:28;;;;;;;2.13;1.88;;;;;;;;;;5044802;28;20584;-61
2022/07/06 10:46:55;;;;;;;2.67;1.50;;;;;;;;;;5040459;28;20559;-63
2022/07/06 10:49:22;;;;;;;8.93;1.90;;;;;;;;;;5042469;28;20213;-64
2022/07/06 10:51:50;;;;;;;3.47;1.50;;;;;;;;;;5054622;28;20235;-63
2022/07/06 10:54:17;;;;;;;8.57;1.88;;;;;;;;;;5049615;28;20217;-62
2022/07/06 10:56:45;;;;;;;5.43;1.90;;;;;;;;;;5034197;28;20549;-61
2022/07/06 10:59:13;;;;;;;3.05;1.77;;;;;;;;;;5035213;28;20244;-61
2022/07/06 11:01:40;;;;;;;3.90;2.00;;;;;;;;;;5038881;28;20255;-61
2022/07/06 11:04:07;;;;;;;1.73;1.40;;;;;;;;;;5046241;28;20516;-62
2022/07/06 11:06:34;;;;;;;5.88;1.50;;;;;;;;;;5038811;28;20463;-62
2022/07/06 11:09:01;;;;;;;6.40;1.77;;;;;;;;;;5037246;28;20418;-62
2022/07/06 11:11:38;;;;;;;2.47;1.80;;;;;;;;;;5048365;28;20229;-61
2022/07/06 11:14:06;;;;;;;5.18;1.65;;;;;;;;;;5046899;28;20531;-62
2022/07/06 11:16:36;;;;;;;3.67;2.05;;;;;;;;;;5049601;28;20283;-62
2022/07/06 11:19:07;;;;;;;9.50;1.77;;;;;;;;;;5054803;28;20416;-62
2022/07/06 11:21:38;;;;;;;4.88;1.73;;;;;;;;;;5054116;28;20209;-62
2022/07/06 11:24:06;;;;;;;6.93;1.83;;;;;;;;;;5034438;28;20311;-62
2022/07/06 11:26:32;;;;;;;6.07;1.83;;;;;;;;;;5033837;28;20217;-61
2022/07/06 11:28:59;;;;;;;3.25;1.50;;;;;;;;;;5034450;28;20213;-63
2022/07/06 11:31:25;;;;;;;3.22;1.77;;;;;;;;;;5034236;28;20233;-62
2022/07/06 11:33:53;;;;;;;7.00;1.63;;;;;;;;;;5034701;28;20394;-62
2022/07/06 11:36:20;;;;;;;3.60;1.55;;;;;;;;;;5037688;28;20216;-61
2022/07/06 11:38:48;;;;;;;4.28;1.80;;;;;;;;;;5033806;28;20217;-61
2022/07/06 11:41:15;;;;;;;3.85;1.92;;;;;;;;;;5050776;28;20595;-66
2022/07/06 11:43:44;;;;;;;3.72;1.80;;;;;;;;;;5034508;28;20220;-62
2022/07/06 11:46:35;;;;;;;9.05;1.73;;;;;;;;;;5050600;28;20524;-63
2022/07/06 11:49:03;;;;;;;4.07;1.60;;;;;;;;;;5024661;28;20256;-62
2022/07/06 11:51:31;;;;;;;2.30;1.58;;;;;;;;;;5033805;28;20228;-62
2022/07/06 11:53:58;;;;;;;4.45;1.85;;;;;;;;;;5052224;28;20266;-62
2022/07/06 11:56:26;;;;;;;1.77;1.30;;;;;;;;;;5035531;28;20274;-62
2022/07/06 11:58:53;;;;;;;4.90;2.15;;;;;;;;;;5034115;28;20213;-62
2022/07/06 12:01:19;;;;;;;5.00;1.60;;;;;;;;;;5033791;28;20210;-62
2022/07/06 12:03:46;;;;;;;2.13;1.60;;;;;;;;;;5034794;28;20213;-62
2022/07/06 12:06:21;;;;;;;2.25;1.92;;;;;;;;;;5043393;28;20243;-63
2022/07/06 12:08:48;;;;;;;5.28;1.67;;;;;;;;;;5058381;28;20220;-62
2022/07/06 12:11:19;;;;;;;4.93;1.98;;;;;;;;;;5053013;28;20229;-61
2022/07/06 12:13:46;;;;;;;2.25;1.60;;;;;;;;;;5037761;28;20216;-61
2022/07/06 12:16:13;;;;;;;7.05;1.88;;;;;;;;;;5038363;28;20209;-61
2022/07/06 12:18:39;;;;;;;5.07;1.88;;;;;;;;;;5054078;28;20223;-62
2022/07/06 12:21:07;;;;;;;3.92;1.80;;;;;;;;;;5057244;28;20394;-61
2022/07/06 12:23:52;;;;;;;3.22;1.85;;;;;;;;;;5057558;28;20270;-61
2022/07/06 12:26:20;;;;;;;8.85;1.75;;;;;;;;;;5057349;28;20212;-61
2022/07/06 12:28:47;;;;;;;6.85;1.60;;;;;;;;;;5056638;28;20216;-62
2022/07/06 12:31:28;;;;;;;10.82;1.48;;;;;;;;;;5057333;28;20540;-62
2022/07/06 12:33:57;;;;;;;12.35;1.75;;;;;;;;;;5054099;28;20212;-62
2022/07/06 12:36:23;;;;;;;5.50;1.90;;;;;;;;;;5038574;28;20221;-62
2022/07/06 12:38:49;;;;;;;6.65;1.73;;;;;;;;;;5056857;28;20220;-62
2022/07/06 12:41:30;;;;;;;4.47;2.00;;;;;;;;;;5057847;28;20331;-62
2022/07/06 12:44:03;;;;;;;8.77;1.85;;;;;;;;;;5038901;28;20452;-61
2022/07/06 12:46:30;;;;;;;2.47;1.73;;;;;;;;;;5036924;28;20228;-62
2022/07/06 12:48:57;;;;;;;6.80;2.00;;;;;;;;;;5041552;28;20244;-61
2022/07/06 12:51:24;;;;;;;10.77;1.80;;;;;;;;;;5037013;28;20229;-62
2022/07/06 12:53:50;;;;;;;6.15;2.08;;;;;;;;;;5037039;28;20212;-62
2022/07/06 12:56:17;;;;;;;13.45;2.28;;;;;;;;;;5036924;28;20284;-62
2022/07/06 12:58:56;;;;;;;4.30;1.95;;;;;;;;;;5036830;28;20213;-62
2022/07/06 13:01:22;;;;;;;7.70;2.03;;;;;;;;;;5054925;28;20215;-62
2022/07/06 13:03:54;;;;;;;1.95;1.45;;;;;;;;;;5056807;28;20258;-62
2022/07/06 13:06:27;;;;;;;29.73;3.85;;;;;;;;;;5056238;28;20570;-62
2022/07/06 13:08:53;;;;;;;54.00;7.18;;;;;;;;;;5056463;28;20239;-62
2022/07/06 13:11:19;;;;;;;10.43;2.28;;;;;;;;;;5051580;28;20236;-62
2022/07/06 13:13:46;;;;;;;3.92;1.90;;;;;;;;;;5036598;28;20443;-62
2022/07/06 13:16:13;;;;;;;4.00;2.10;;;;;;;;;;5036977;28;20306;-62
2022/07/06 13:18:39;;;;;;;7.53;2.17;;;;;;;;;;5051728;28;20212;-62
2022/07/06 13:21:06;;;;;;;4.82;2.20;;;;;;;;;;5056447;28;20254;-61
2022/07/06 13:23:32;;;;;;;6.15;1.95;;;;;;;;;;5057082;28;20217;-61
2022/07/06 13:25:59;;;;;;;5.28;2.15;;;;;;;;;;5048262;28;20213;-61
2022/07/06 13:28:25;;;;;;;3.28;1.80;;;;;;;;;;5055817;28;20282;-62
2022/07/06 13:30:51;;;;;;;3.30;1.55;;;;;;;;;;5047494;28;20249;-61
2022/07/06 13:33:19;;;;;;;3.45;1.63;;;;;;;;;;5044781;28;20237;-61
2022/07/06 13:35:45;;;;;;;7.00;2.33;;;;;;;;;;5036015;28;20220;-61
2022/07/06 13:38:11;;;;;;;3.72;1.55;;;;;;;;;;5036097;28;20228;-61
2022/07/06 13:40:38;;;;;;;7.10;2.00;;;;;;;;;;5055810;28;20412;-60
2022/07/06 13:43:04;;;;;;;1.83;1.52;;;;;;;;;;5056108;28;20304;-62
2022/07/06 13:45:30;;;;;;;4.53;1.70;;;;;;;;;;5040982;28;20212;-62
2022/07/06 13:47:57;;;;;;;6.35;1.90;;;;;;;;;;5035552;28;20213;-61
2022/07/06 13:50:27;;;;;;;2.38;1.60;;;;;;;;;;5036439;28;20520;-61
2022/07/06 13:52:54;;;;;;;4.40;1.73;;;;;;;;;;5036084;28;20594;-62
2022/07/06 13:55:20;;;;;;;4.43;1.45;;;;;;;;;;5036020;28;20236;-62
2022/07/06 13:57:48;;;;;;;3.22;1.58;;;;;;;;;;5035617;28;20213;-61
2022/07/06 14:00:14;;;;;;;5.97;1.80;;;;;;;;;;5034554;28;20227;-62
2022/07/06 14:02:41;;;;;;;5.45;1.58;;;;;;;;;;5035790;28;20403;-61
2022/07/06 14:05:07;;;;;;;3.45;1.63;;;;;;;;;;5038451;28;20235;-62
2022/07/06 14:07:35;;;;;;;3.80;1.65;;;;;;;;;;5047435;28;20217;-61
2022/07/06 14:10:01;;;;;;;4.70;1.80;;;;;;;;;;5037862;28;20455;-62
2022/07/06 14:12:27;;;;;;;6.35;1.77;;;;;;;;;;5046480;28;20217;-61
2022/07/06 14:14:54;;;;;;;2.33;1.50;;;;;;;;;;5055328;28;20230;-61
2022/07/06 14:17:20;;;;;;;5.25;1.60;;;;;;;;;;5037532;28;20221;-61
2022/07/06 14:19:46;;;;;;;3.40;1.48;;;;;;;;;;5035333;28;20305;-62
2022/07/06 14:22:12;;;;;;;3.35;1.35;;;;;;;;;;5035025;28;20205;-62
2022/07/06 14:24:40;;;;;;;4.63;1.50;;;;;;;;;;5051432;28;20215;-62
2022/07/06 14:27:06;;;;;;;2.28;1.70;;;;;;;;;;5054126;28;20278;-61
2022/07/06 14:29:33;;;;;;;1.83;1.63;;;;;;;;;;5054439;28;20263;-62
2022/07/06 14:31:59;;;;;;;2.15;1.85;;;;;;;;;;5035353;28;20229;-62
2022/07/06 14:34:25;;;;;;;5.70;1.52;;;;;;;;;;5034489;28;20255;-61
2022/07/06 14:36:51;;;;;;;2.53;1.27;;;;;;;;;;5034438;28;20213;-61
2022/07/06 14:39:18;;;;;;;5.10;1.50;;;;;;;;;;5034293;28;20224;-62
2022/07/06 14:41:45;;;;;;;4.10;1.52;;;;;;;;;;5038781;28;20212;-61
2022/07/06 14:44:12;;;;;;;2.88;1.58;;;;;;;;;;5055431;28;20405;-61
2022/07/06 14:46:38;;;;;;;2.70;1.65;;;;;;;;;;5054347;28;20726;-61